Time;durP1;ratioP1;P1;durP2;ratioP2;P2;SDS_P1;SDS_P2;PMS_P1;PMS_P2;Temp;Humidity;BMP_temperature;BMP_pressure;BME280_temperature;BME280_humidity;BME280_pressure;Samples;Min_cycle;Max_cycle;Signal;HPM_P1;HPM_P2
2023/10/07 00:01:01;;;;;;;0.62;0.25;;;;;;;13.62;59.58;100714.38;4463723;32;35193;-82
2023/10/07 00:03:29;;;;;;;0.00;0.00;;;;;;;13.48;60.17;100717.63;4449535;32;33684;-82
2023/10/07 00:06:00;;;;;;;0.52;0.52;;;;;;;13.41;60.29;100713.47;4447072;32;34863;-82
2023/10/07 00:08:28;;;;;;;0.15;0.10;;;;;;;13.47;59.88;100707.03;4474872;32;34363;-82
2023/10/07 00:10:59;;;;;;;2.37;0.37;;;;;;;13.45;59.90;100701.81;4461243;32;32641;-82
2023/10/07 00:13:31;;;;;;;8.50;1.27;;;;;;;13.40;59.96;100697.63;4462721;32;34246;-82
2023/10/07 00:16:00;;;;;;;0.20;0.20;;;;;;;13.29;60.08;100696.28;4474576;32;33022;-82
2023/10/07 00:18:28;;;;;;;0.55;0.55;;;;;;;13.41;59.88;100686.94;4463057;32;33866;-82
2023/10/07 00:20:56;;;;;;;0.93;0.93;;;;;;;13.42;60.00;100691.31;4472713;32;32660;-81
2023/10/07 00:23:28;;;;;;;0.10;0.10;;;;;;;13.42;60.10;100686.00;4475038;32;34042;-82
2023/10/07 00:25:57;;;;;;;2.08;1.73;;;;;;;13.37;59.98;100685.34;4449173;32;32185;-81
2023/10/07 00:28:32;;;;;;;2.80;0.88;;;;;;;13.29;60.10;100685.66;4473964;32;34000;-81
2023/10/07 00:31:13;;;;;;;1.55;0.50;;;;;;;13.37;59.94;100682.69;4450523;32;33873;-82
2023/10/07 00:36:47;;;;;;;0.03;0.03;;;;;;;13.38;59.96;100683.53;4418691;32;32789;-82
2023/10/07 00:39:31;;;;;;;0.00;0.00;;;;;;;13.39;60.00;100677.31;4467311;32;34231;-82
2023/10/07 00:41:59;;;;;;;0.15;0.10;;;;;;;13.45;59.60;100677.94;4452369;32;34229;-82
2023/10/07 00:44:32;;;;;;;0.52;0.40;;;;;;;13.29;60.01;100676.81;4461281;32;33801;-82
2023/10/07 00:47:22;;;;;;;3.08;0.30;;;;;;;13.28;60.02;100670.66;4475748;32;32971;-82
2023/10/07 00:52:28;;;;;;;0.20;0.20;;;;;;;13.22;60.14;100667.41;4463182;32;33650;-82
2023/10/07 00:55:08;;;;;;;0.37;0.37;;;;;;;13.25;59.87;100657.53;4474743;32;34602;-82
2023/10/07 00:57:37;;;;;;;0.65;0.65;;;;;;;13.11;60.36;100649.25;4472300;32;33361;-82
2023/10/07 01:00:28;;;;;;;0.10;0.10;;;;;;;13.07;60.49;100643.22;4461061;32;33508;-82
2023/10/07 01:05:55;;;;;;;0.00;0.00;;;;;;;12.98;60.66;100640.94;4465659;32;32876;-81
2023/10/07 01:08:35;;;;;;;0.15;0.15;;;;;;;13.06;60.62;100635.31;4463571;32;32990;-82
2023/10/07 01:11:08;;;;;;;3.40;1.17;;;;;;;12.96;60.89;100640.13;4449283;32;33184;-81
2023/10/07 01:13:36;;;;;;;1.85;1.20;;;;;;;12.90;60.79;100624.44;4474341;32;33941;-82
2023/10/07 01:16:07;;;;;;;0.25;0.17;;;;;;;12.91;60.72;100626.19;4472494;32;33926;-82
2023/10/07 01:18:38;;;;;;;0.20;0.20;;;;;;;12.88;60.59;100621.03;4448131;32;32206;-82
2023/10/07 01:21:14;;;;;;;0.25;0.25;;;;;;;12.93;60.61;100619.03;4474966;32;34591;-83
2023/10/07 01:23:45;;;;;;;0.37;0.37;;;;;;;12.90;60.27;100619.16;4474317;32;34024;-82
2023/10/07 01:26:20;;;;;;;0.35;0.10;;;;;;;12.87;60.42;100616.66;4451119;32;33045;-83
2023/10/07 01:28:56;;;;;;;1.27;1.17;;;;;;;12.94;59.75;100610.16;4462060;32;33821;-83
2023/10/07 01:31:29;;;;;;;0.47;0.47;;;;;;;12.88;59.92;100609.56;4474552;32;33872;-83
2023/10/07 01:34:01;;;;;;;0.20;0.20;;;;;;;12.86;60.07;100606.09;4459482;32;33960;-84
2023/10/07 01:36:30;;;;;;;0.13;0.13;;;;;;;12.70;60.78;100612.00;4462663;32;33903;-83
2023/10/07 01:39:01;;;;;;;2.12;0.22;;;;;;;12.77;60.57;100609.97;4462673;32;32285;-83
2023/10/07 01:41:30;;;;;;;0.20;0.20;;;;;;;12.84;60.57;100606.16;4461747;32;34830;-83
2023/10/07 01:44:04;;;;;;;0.20;0.20;;;;;;;12.72;60.89;100609.28;4473837;32;34840;-83
2023/10/07 01:46:33;;;;;;;0.55;0.43;;;;;;;12.75;60.63;100609.16;4475061;32;34323;-83
2023/10/07 01:49:05;;;;;;;1.30;0.52;;;;;;;12.78;60.48;100611.72;4446326;32;33342;-83
2023/10/07 01:51:35;;;;;;;0.00;0.00;;;;;;;12.83;60.40;100607.09;4473870;32;33895;-83
2023/10/07 01:54:03;;;;;;;1.95;0.68;;;;;;;12.59;61.18;100602.78;4461544;32;34405;-82
2023/10/07 01:56:34;;;;;;;0.10;0.10;;;;;;;12.64;60.81;100603.44;4460704;32;34819;-83
2023/10/07 02:01:49;;;;;;;2.53;0.55;;;;;;;12.71;60.76;100596.97;4462521;32;32761;-83
2023/10/07 02:04:18;;;;;;;0.70;0.70;;;;;;;12.68;60.63;100597.97;4462303;32;32915;-84
2023/10/07 02:06:52;;;;;;;12.63;0.90;;;;;;;12.58;61.15;100601.91;4476628;32;34183;-82
2023/10/07 02:09:27;;;;;;;1.75;0.30;;;;;;;12.47;61.35;100599.66;4475426;32;34177;-82
2023/10/07 02:11:57;;;;;;;0.10;0.08;;;;;;;12.56;61.12;100596.66;4464566;32;34389;-82
2023/10/07 02:14:25;;;;;;;0.08;0.08;;;;;;;12.48;61.66;100597.84;4474354;32;33660;-82
2023/10/07 02:16:56;;;;;;;0.08;0.08;;;;;;;12.58;61.26;100591.31;4448514;32;32709;-82
2023/10/07 02:19:28;;;;;;;0.80;0.80;;;;;;;12.54;61.16;100587.91;4462294;32;33025;-81
2023/10/07 02:22:03;;;;;;;0.28;0.25;;;;;;;12.54;61.15;100585.25;4477424;32;32781;-81
2023/10/07 02:24:32;;;;;;;0.20;0.20;;;;;;;12.59;60.83;100586.88;4461923;32;33140;-81
2023/10/07 02:27:04;;;;;;;0.25;0.25;;;;;;;12.66;60.49;100575.09;4475534;32;34652;-82
2023/10/07 02:29:34;;;;;;;2.90;0.57;;;;;;;12.37;61.40;100581.53;4463544;32;33480;-83
2023/10/07 02:32:12;;;;;;;0.00;0.00;;;;;;;12.28;61.79;100578.31;4475307;32;33700;-83
2023/10/07 02:34:53;;;;;;;0.80;0.65;;;;;;;12.37;61.42;100582.41;4462651;32;33207;-83
2023/10/07 02:37:22;;;;;;;0.52;0.52;;;;;;;12.29;61.99;100573.88;4474689;32;33547;-82
2023/10/07 02:39:54;;;;;;;0.47;0.45;;;;;;;12.43;61.28;100578.63;4450792;32;31675;-81
2023/10/07 02:42:28;;;;;;;0.00;0.00;;;;;;;12.35;61.52;100578.09;4465117;32;33873;-80
2023/10/07 02:45:11;;;;;;;0.17;0.17;;;;;;;12.41;61.35;100572.56;4476701;32;33570;-81
2023/10/07 02:47:39;;;;;;;0.47;0.25;;;;;;;12.34;61.89;100566.63;4474184;32;33490;-81
2023/10/07 02:50:08;;;;;;;0.00;0.00;;;;;;;12.36;61.67;100570.09;4473904;32;32968;-80
2023/10/07 02:52:39;;;;;;;0.52;0.45;;;;;;;12.53;60.79;100558.81;4475386;32;34236;-80
2023/10/07 02:57:55;;;;;;;1.58;1.48;;;;;;;12.33;61.61;100554.31;4465647;32;33024;-80
2023/10/07 03:00:38;;;;;;;1.35;0.98;;;;;;;12.47;60.92;100557.28;4462555;32;33353;-80
2023/10/07 03:03:31;;;;;;;0.22;0.22;;;;;;;12.33;61.35;100543.72;4463474;32;34670;-80
2023/10/07 03:05:59;;;;;;;;;;;;;;;12.34;61.57;100542.78;4475654;32;34734;-81
2023/10/07 03:08:40;;;;;;;4.90;1.15;;;;;;;12.74;59.94;100555.31;4447747;32;33144;-81
2023/10/07 03:11:12;;;;;;;0.43;0.43;;;;;;;12.49;60.61;100544.00;4466331;32;31954;-80
2023/10/07 03:13:49;;;;;;;0.25;0.25;;;;;;;12.40;60.93;100541.69;4469701;32;34222;-81
2023/10/07 03:24:11;;;;;;;0.80;0.80;;;;;;;12.29;61.73;100550.91;4474431;32;33378;-81
2023/10/07 03:26:45;;;;;;;0.43;0.43;;;;;;;12.28;61.35;100549.19;4462963;32;33685;-81
2023/10/07 03:29:29;;;;;;;0.10;0.10;;;;;;;12.23;61.68;100547.62;4462745;32;33811;-81
2023/10/07 03:31:59;;;;;;;0.00;0.00;;;;;;;12.15;62.18;100539.13;4472790;32;33433;-81
2023/10/07 03:34:28;;;;;;;0.77;0.30;;;;;;;12.21;61.57;100544.19;4462961;32;33502;-82
2023/10/07 03:39:56;;;;;;;0.05;0.05;;;;;;;12.15;61.75;100542.63;4477263;32;34523;-81
2023/10/07 03:42:25;;;;;;;0.10;0.10;;;;;;;12.56;59.83;100541.00;4463279;32;31754;-81
2023/10/07 03:44:53;;;;;;;1.83;0.75;;;;;;;12.06;61.54;100550.94;4473127;32;34854;-81
2023/10/07 03:47:20;;;;;;;0.52;0.52;;;;;;;12.16;61.66;100540.88;4461364;32;34686;-82
2023/10/07 03:49:58;;;;;;;0.43;0.43;;;;;;;12.07;61.89;100546.50;4449759;32;33539;-82
2023/10/07 03:52:28;;;;;;;1.00;0.70;;;;;;;12.18;61.63;100547.81;4464365;32;32682;-82
2023/10/07 03:54:59;;;;;;;0.00;0.00;;;;;;;12.14;61.51;100535.59;4473309;32;32697;-81
2023/10/07 03:57:30;;;;;;;0.30;0.30;;;;;;;12.11;61.65;100545.47;4463197;32;33168;-82
2023/10/07 03:59:58;;;;;;;0.32;0.32;;;;;;;12.10;61.65;100535.78;4475398;32;33394;-81
2023/10/07 04:05:00;;;;;;;0.67;0.67;;;;;;;12.22;61.09;100540.62;4463361;32;34342;-81
2023/10/07 04:07:31;;;;;;;0.00;0.00;;;;;;;12.16;61.40;100547.03;4477844;32;33762;-81
2023/10/07 04:12:40;;;;;;;0.15;0.15;;;;;;;12.17;61.36;100545.25;4464041;32;32900;-81
2023/10/07 04:15:12;;;;;;;1.45;0.62;;;;;;;12.10;61.42;100541.09;4474770;32;33507;-81
2023/10/07 04:17:42;;;;;;;0.03;0.03;;;;;;;12.10;61.85;100535.78;4464703;32;34811;-81
2023/10/07 04:20:18;;;;;;;1.62;0.82;;;;;;;12.03;62.20;100536.03;4475038;32;34478;-80
2023/10/07 04:23:02;;;;;;;0.00;0.00;;;;;;;12.11;62.07;100530.47;4474759;32;34067;-80
2023/10/07 04:25:31;;;;;;;1.48;0.45;;;;;;;12.40;60.23;100529.31;4450717;32;33128;-81
2023/10/07 04:27:59;;;;;;;1.12;0.62;;;;;;;12.13;61.14;100530.38;4462689;32;34725;-81
2023/10/07 04:30:39;;;;;;;0.35;0.08;;;;;;;12.22;61.00;100530.03;4471165;32;33067;-81
2023/10/07 04:33:10;;;;;;;0.37;0.37;;;;;;;12.07;61.55;100533.28;4461280;32;31497;-80
2023/10/07 04:35:38;;;;;;;0.20;0.20;;;;;;;12.11;61.05;100526.94;4460052;32;34558;-81
2023/10/07 04:38:10;;;;;;;0.65;0.65;;;;;;;11.99;61.82;100529.13;4458011;32;33550;-80
2023/10/07 04:46:24;;;;;;;0.10;0.10;;;;;;;12.14;61.76;100519.72;4472379;32;33954;-81
2023/10/07 04:48:56;;;;;;;1.17;1.02;;;;;;;12.08;61.93;100516.47;4450753;32;32213;-80
2023/10/07 04:54:00;;;;;;;0.20;0.15;;;;;;;12.09;61.58;100520.84;4477547;32;33371;-80
2023/10/07 04:56:33;;;;;;;0.00;0.00;;;;;;;12.13;61.36;100523.31;4471811;32;33586;-81
2023/10/07 04:59:00;;;;;;;0.10;0.10;;;;;;;12.10;61.62;100520.75;4446208;32;34944;-81
2023/10/07 05:01:31;;;;;;;0.10;0.10;;;;;;;12.04;62.07;100526.31;4469929;32;36765;-80
2023/10/07 05:04:04;;;;;;;0.20;0.20;;;;;;;12.09;61.67;100519.03;4457436;32;34163;-81
2023/10/07 05:06:37;;;;;;;0.82;0.82;;;;;;;12.13;61.83;100519.78;4460270;32;31980;-81
2023/10/07 05:09:09;;;;;;;0.30;0.30;;;;;;;12.16;61.84;100525.84;4459626;32;36052;-81
2023/10/07 05:11:43;;;;;;;0.45;0.45;;;;;;;12.02;62.07;100526.38;4456155;32;32843;-80
2023/10/07 05:14:11;;;;;;;0.55;0.55;;;;;;;11.93;63.00;100529.38;4457552;32;33087;-80
2023/10/07 05:16:39;;;;;;;0.43;0.43;;;;;;;12.09;62.69;100519.03;4458726;32;33853;-81
2023/10/07 05:19:09;;;;;;;0.25;0.25;;;;;;;12.21;62.22;100513.28;4473112;32;33239;-80
2023/10/07 05:21:40;;;;;;;0.52;0.52;;;;;;;12.30;62.13;100517.38;4452710;32;33749;-81
2023/10/07 05:24:09;;;;;;;0.10;0.10;;;;;;;12.25;62.71;100524.63;4473316;32;33032;-82
2023/10/07 05:26:40;;;;;;;1.58;0.20;;;;;;;12.39;62.43;100522.31;4445957;32;33720;-82
2023/10/07 05:29:12;;;;;;;2.00;0.98;;;;;;;12.36;63.03;100516.25;4460368;32;33212;-82
2023/10/07 05:31:42;;;;;;;0.10;0.10;;;;;;;12.51;62.93;100524.44;4447176;32;34011;-81
2023/10/07 05:34:10;;;;;;;0.00;0.00;;;;;;;12.58;63.01;100519.78;4477034;32;32411;-81
2023/10/07 05:36:38;;;;;;;2.15;0.98;;;;;;;12.77;62.60;100519.84;4461784;32;34763;-81
2023/10/07 05:39:13;;;;;;;1.08;1.08;;;;;;;12.75;63.30;100517.28;4473914;32;36769;-81
2023/10/07 05:41:42;;;;;;;6.03;0.30;;;;;;;12.86;63.16;100505.37;4459551;32;34454;-81
2023/10/07 05:44:09;;;;;;;0.60;0.60;;;;;;;12.92;63.92;100521.03;4471590;31;33567;-81
2023/10/07 05:46:37;;;;;;;0.37;0.37;;;;;;;13.30;62.80;100527.41;4461917;32;32872;-81
2023/10/07 05:49:06;;;;;;;0.57;0.32;;;;;;;13.48;62.82;100520.41;4473820;32;33863;-81
2023/10/07 05:51:36;;;;;;;0.25;0.25;;;;;;;13.64;62.81;100520.59;4461224;32;32914;-81
2023/10/07 05:54:05;;;;;;;0.75;0.75;;;;;;;13.69;64.47;100523.91;4462303;32;30828;-81
2023/10/07 05:56:33;;;;;;;1.87;0.77;;;;;;;13.82;65.29;100533.03;4478998;32;32711;-81
2023/10/07 05:59:01;;;;;;;2.50;1.77;;;;;;;14.08;65.06;100531.81;4457535;32;33087;-82
2023/10/07 06:01:33;;;;;;;5.47;2.97;;;;;;;14.07;65.53;100525.66;4459480;32;33953;-82
2023/10/07 06:04:02;;;;;;;1.52;1.15;;;;;;;14.37;65.10;100533.09;4462788;32;32297;-82
2023/10/07 06:06:30;;;;;;;0.95;0.95;;;;;;;14.74;64.32;100528.72;4471821;31;32898;-82
2023/10/07 06:09:03;;;;;;;0.55;0.55;;;;;;;14.82;63.70;100534.53;4460679;32;31469;-82
2023/10/07 06:11:34;;;;;;;0.40;0.40;;;;;;;14.82;63.70;100539.84;4474784;32;33828;-82
2023/10/07 06:14:06;;;;;;;4.07;1.58;;;;;;;15.02;63.06;100530.84;4460841;32;34060;-82
2023/10/07 06:16:36;;;;;;;0.37;0.37;;;;;;;14.92;62.99;100538.44;4475630;32;33605;-82
2023/10/07 06:19:06;;;;;;;3.90;2.67;;;;;;;15.27;62.37;100530.47;4449251;32;32966;-83
2023/10/07 06:21:34;;;;;;;3.22;2.00;;;;;;;15.58;61.19;100530.59;4465143;32;33103;-83
2023/10/07 06:24:06;;;;;;;2.58;1.35;;;;;;;15.80;60.97;100534.78;4463805;32;32215;-83
2023/10/07 06:26:36;;;;;;;0.82;0.40;;;;;;;15.81;61.02;100532.06;4461880;32;32250;-82
2023/10/07 06:29:10;;;;;;;1.87;0.95;;;;;;;15.71;61.30;100527.28;4460878;32;33048;-82
2023/10/07 06:31:40;;;;;;;2.33;1.02;;;;;;;15.69;61.41;100532.72;4463986;32;33228;-81
2023/10/07 06:34:12;;;;;;;0.50;0.50;;;;;;;15.76;61.14;100530.56;4473793;32;33905;-82
2023/10/07 06:36:40;;;;;;;0.53;0.53;;;;;;;16.06;60.33;100536.06;4475973;32;33471;-82
2023/10/07 06:39:08;;;;;;;0.35;0.35;;;;;;;16.31;59.89;100530.22;4456122;32;32953;-82
2023/10/07 06:41:36;;;;;;;0.00;0.00;;;;;;;16.30;59.44;100528.53;4462418;32;33777;-81
2023/10/07 06:44:08;;;;;;;0.93;0.93;;;;;;;15.95;60.78;100538.44;4447715;31;31959;-81
2023/10/07 06:46:40;;;;;;;0.93;0.62;;;;;;;15.84;61.92;100541.69;4465892;32;34036;-81
2023/10/07 06:49:19;;;;;;;0.83;0.60;;;;;;;16.12;61.00;100541.06;4463972;32;32432;-82
2023/10/07 06:51:56;;;;;;;2.05;1.48;;;;;;;16.23;60.63;100543.13;4475757;32;33844;-82
2023/10/07 06:54:32;;;;;;;1.35;1.20;;;;;;;16.25;60.56;100536.78;4475770;32;33155;-82
2023/10/07 06:57:27;;;;;;;0.93;0.93;;;;;;;16.35;59.94;100534.44;4465493;32;33365;-83
2023/10/07 06:59:57;;;;;;;0.90;0.90;;;;;;;16.55;59.36;100538.66;4460268;32;33617;-83
2023/10/07 07:02:35;;;;;;;1.25;0.98;;;;;;;16.73;59.02;100539.44;4452686;32;33114;-84
2023/10/07 07:05:11;;;;;;;0.57;0.57;;;;;;;16.88;58.56;100541.22;4453767;32;32483;-82
2023/10/07 07:07:45;;;;;;;0.80;0.80;;;;;;;16.71;59.23;100535.97;4449274;32;33107;-83
2023/10/07 07:10:16;;;;;;;0.50;0.50;;;;;;;16.88;59.24;100538.56;4461156;32;33927;-83
2023/10/07 07:12:45;;;;;;;1.35;1.25;;;;;;;17.37;56.97;100530.31;4450781;32;33077;-83
2023/10/07 07:15:26;;;;;;;2.83;1.10;;;;;;;17.48;56.50;100530.53;4450054;32;33649;-83
2023/10/07 07:20:49;;;;;;;0.75;0.75;;;;;;;17.62;57.10;100530.56;4461455;32;34174;-83
2023/10/07 07:23:21;;;;;;;0.85;0.73;;;;;;;17.79;56.74;100524.19;4449355;32;34561;-82
2023/10/07 07:26:09;;;;;;;1.20;1.10;;;;;;;17.58;57.30;100537.03;4464265;32;33206;-84
2023/10/07 07:29:04;;;;;;;1.87;1.27;;;;;;;17.63;56.97;100534.94;4460341;32;33527;-83
2023/10/07 07:31:34;;;;;;;0.32;0.32;;;;;;;17.87;55.92;100526.41;4458804;32;34035;-83
2023/10/07 07:34:19;;;;;;;0.22;0.22;;;;;;;17.98;56.13;100526.56;4442087;32;33752;-83
2023/10/07 07:36:59;;;;;;;1.90;0.93;;;;;;;17.98;56.23;100533.72;4461427;31;33767;-84
2023/10/07 07:39:30;;;;;;;0.90;0.80;;;;;;;18.45;55.18;100535.19;4450184;32;35104;-84
2023/10/07 07:42:15;;;;;;;0.60;0.50;;;;;;;18.58;54.48;100539.66;4449312;32;34060;-84
2023/10/07 07:44:59;;;;;;;0.13;0.13;;;;;;;19.03;53.38;100531.38;4451083;32;33464;-83
2023/10/07 07:47:38;;;;;;;0.68;0.55;;;;;;;19.19;52.77;100535.59;4472241;32;34507;-84
2023/10/07 07:50:16;;;;;;;2.37;1.70;;;;;;;18.84;53.12;100534.41;4451501;32;34073;-84
2023/10/07 07:52:54;;;;;;;0.37;0.37;;;;;;;19.48;52.03;100530.06;4452679;32;33411;-84
2023/10/07 07:55:29;;;;;;;0.55;0.55;;;;;;;19.72;51.75;100529.38;4458358;32;33255;-83
2023/10/07 07:57:58;;;;;;;3.85;0.95;;;;;;;19.68;51.74;100526.88;4446972;32;33887;-84
2023/10/07 08:00:26;;;;;;;1.15;0.75;;;;;;;19.65;52.03;100521.75;4447394;32;33683;-82
2023/10/07 08:02:55;;;;;;;1.02;1.02;;;;;;;19.55;51.63;100520.62;4448979;32;33320;-83
2023/10/07 08:05:28;;;;;;;0.40;0.40;;;;;;;19.77;51.73;100511.13;4461369;32;33646;-83
2023/10/07 08:07:58;;;;;;;1.30;0.45;;;;;;;19.93;50.99;100514.44;4462376;32;33813;-83
2023/10/07 08:10:28;;;;;;;3.20;0.98;;;;;;;20.12;51.14;100514.81;4457882;32;33376;-83
2023/10/07 08:12:58;;;;;;;0.45;0.45;;;;;;;19.83;50.73;100518.72;4458862;32;33418;-83
2023/10/07 08:15:38;;;;;;;1.05;0.95;;;;;;;20.05;50.58;100520.75;4451055;32;33449;-83
2023/10/07 08:18:09;;;;;;;0.70;0.70;;;;;;;20.16;49.50;100516.31;4449760;32;33380;-83
2023/10/07 08:20:44;;;;;;;0.60;0.60;;;;;;;20.35;48.84;100515.00;4452813;32;33491;-83
2023/10/07 08:23:24;;;;;;;0.45;0.35;;;;;;;20.62;48.62;100506.78;4453676;32;33110;-83
2023/10/07 08:25:58;;;;;;;1.10;0.77;;;;;;;20.67;48.55;100508.13;4473333;32;34650;-83
2023/10/07 08:28:41;;;;;;;0.55;0.47;;;;;;;20.68;48.60;100507.16;4454439;32;32609;-83
2023/10/07 08:31:20;;;;;;;2.75;0.85;;;;;;;20.67;48.81;100509.97;4450075;32;33766;-83
2023/10/07 08:34:09;;;;;;;0.13;0.13;;;;;;;21.16;48.01;100501.72;4449953;32;33246;-83
2023/10/07 08:39:47;;;;;;;1.27;0.95;;;;;;;21.40;47.56;100498.16;4440297;32;33993;-82
2023/10/07 08:42:26;;;;;;;2.15;1.33;;;;;;;21.26;47.19;100492.97;4408290;32;32814;-82
2023/10/07 08:44:59;;;;;;;0.50;0.50;;;;;;;21.38;46.67;100490.22;4418108;32;34030;-82
2023/10/07 08:47:39;;;;;;;0.75;0.65;;;;;;;21.34;46.36;100495.97;4414974;32;33726;-83
2023/10/07 08:50:08;;;;;;;0.70;0.70;;;;;;;21.19;46.07;100488.09;4434011;32;33867;-82
2023/10/07 08:52:36;;;;;;;2.58;2.35;;;;;;;21.41;45.78;100489.13;4419277;32;32111;-82
2023/10/07 08:55:09;;;;;;;0.93;0.85;;;;;;;21.55;46.42;100482.66;4405220;32;32820;-83
2023/10/07 08:57:37;;;;;;;2.47;1.35;;;;;;;21.81;44.95;100480.63;4414843;32;33578;-82
2023/10/07 09:00:11;;;;;;;0.20;0.20;;;;;;;22.15;44.81;100478.78;4418627;32;32492;-82
2023/10/07 09:02:40;;;;;;;0.73;0.65;;;;;;;22.40;44.11;100483.00;4431094;32;33913;-82
2023/10/07 09:05:16;;;;;;;1.37;0.77;;;;;;;22.54;43.51;100490.78;4432195;32;33108;-82
2023/10/07 09:07:49;;;;;;;0.60;0.60;;;;;;;22.43;42.54;100482.75;4413939;32;32375;-82
2023/10/07 09:10:17;;;;;;;1.62;0.82;;;;;;;22.48;42.58;100480.53;4451093;32;33584;-82
2023/10/07 09:12:48;;;;;;;3.05;1.98;;;;;;;22.96;42.98;100480.16;4458690;32;34050;-82
2023/10/07 09:15:36;;;;;;;4.22;1.60;;;;;;;22.66;42.47;100483.56;4449876;32;33989;-82
2023/10/07 09:18:04;;;;;;;2.92;0.77;;;;;;;23.09;41.62;100488.91;4446863;32;34126;-82
2023/10/07 09:20:43;;;;;;;0.98;0.93;;;;;;;23.34;42.13;100476.88;4460322;32;32411;-82
2023/10/07 09:23:20;;;;;;;0.75;0.50;;;;;;;23.24;42.33;100474.09;4457999;32;33321;-82
2023/10/07 09:25:55;;;;;;;1.70;0.60;;;;;;;23.36;41.63;100472.22;4459770;32;33520;-82
2023/10/07 09:28:31;;;;;;;2.33;1.30;;;;;;;22.97;41.21;100476.47;4450068;32;33227;-83
2023/10/07 09:31:05;;;;;;;1.37;1.08;;;;;;;23.22;40.63;100470.72;4471014;32;34109;-82
2023/10/07 09:33:37;;;;;;;0.20;0.20;;;;;;;23.40;40.82;100472.78;4459946;32;33292;-82
2023/10/07 09:36:33;;;;;;;0.60;0.60;;;;;;;23.59;39.98;100467.50;4460495;32;33623;-82
2023/10/07 09:39:33;;;;;;;0.85;0.73;;;;;;;23.11;40.75;100462.66;4458121;32;33838;-82
2023/10/07 09:42:05;;;;;;;1.25;0.93;;;;;;;23.15;40.71;100461.44;4456730;32;33889;-82
2023/10/07 09:44:40;;;;;;;4.10;0.62;;;;;;;23.15;41.50;100458.72;4471475;32;34374;-86
2023/10/07 09:47:20;;;;;;;0.65;0.65;;;;;;;23.57;40.43;100456.00;4470538;31;34305;-82
2023/10/07 09:49:50;;;;;;;1.27;0.37;;;;;;;23.79;40.87;100448.75;4461507;32;34573;-82
2023/10/07 09:52:28;;;;;;;4.82;0.70;;;;;;;23.84;40.84;100449.22;4458862;32;33639;-82
2023/10/07 09:55:31;;;;;;;2.12;1.23;;;;;;;24.04;40.07;100439.31;4471765;32;34582;-82
2023/10/07 09:58:00;;;;;;;0.80;0.80;;;;;;;24.38;39.42;100447.94;4447179;32;33234;-82
2023/10/07 10:00:44;;;;;;;0.62;0.62;;;;;;;24.83;38.49;100439.28;4458942;32;36629;-82
2023/10/07 10:03:42;;;;;;;0.60;0.60;;;;;;;24.68;37.03;100442.41;4459692;32;34153;-82
2023/10/07 10:06:52;;;;;;;2.65;1.25;;;;;;;24.56;36.48;100443.56;4461519;32;33136;-82
2023/10/07 10:09:27;;;;;;;0.55;0.17;;;;;;;25.02;35.59;100432.03;4454860;32;33673;-82
2023/10/07 10:12:16;;;;;;;2.70;1.00;;;;;;;24.79;36.65;100441.44;4458710;32;34034;-82
2023/10/07 10:17:39;;;;;;;0.57;0.57;;;;;;;24.84;35.55;100432.91;4463903;32;34812;-82
2023/10/07 10:20:15;;;;;;;1.83;1.10;;;;;;;24.62;35.11;100429.47;4461884;32;34387;-82
2023/10/07 10:22:50;;;;;;;1.35;1.00;;;;;;;24.69;35.74;100430.63;4464567;32;34463;-82
2023/10/07 10:25:39;;;;;;;0.68;0.68;;;;;;;24.69;35.20;100422.53;4470792;32;33344;-81
2023/10/07 10:28:10;;;;;;;0.55;0.55;;;;;;;24.76;35.71;100420.09;4460744;32;35033;-81
2023/10/07 10:30:45;;;;;;;0.62;0.20;;;;;;;24.64;35.03;100416.72;4460472;32;34022;-81
2023/10/07 10:33:20;;;;;;;0.77;0.70;;;;;;;24.78;35.74;100416.28;4449253;32;33285;-81
2023/10/07 10:36:08;;;;;;;0.73;0.40;;;;;;;24.77;35.05;100427.19;4432463;32;31986;-81
2023/10/07 10:38:45;;;;;;;0.20;0.20;;;;;;;24.95;35.22;100427.34;4452115;32;36479;-81
2023/10/07 10:41:30;;;;;;;0.30;0.30;;;;;;;25.13;35.08;100401.31;4449924;32;33224;-82
2023/10/07 10:44:10;;;;;;;1.90;1.50;;;;;;;25.12;34.83;100407.72;4460702;32;34630;-83
2023/10/07 10:46:51;;;;;;;0.30;0.30;;;;;;;24.97;34.05;100411.81;4452159;32;32814;-82
2023/10/07 10:49:23;;;;;;;0.40;0.40;;;;;;;25.07;33.99;100403.69;4450583;32;33430;-83
2023/10/07 10:52:02;;;;;;;0.43;0.25;;;;;;;25.51;33.62;100394.06;4452617;32;33722;-82
2023/10/07 10:54:32;;;;;;;2.17;1.37;;;;;;;25.33;33.92;100390.44;4446630;32;34829;-83
2023/10/07 10:57:08;;;;;;;0.20;0.20;;;;;;;25.66;33.87;100387.16;4453944;32;33068;-83
2023/10/07 10:59:45;;;;;;;0.45;0.45;;;;;;;25.77;34.65;100381.56;4440379;32;32997;-83
2023/10/07 11:02:20;;;;;;;2.08;1.20;;;;;;;25.59;34.54;100369.84;4460067;32;34462;-82
2023/10/07 11:08:23;;;;;;;0.57;0.57;;;;;;;26.00;31.40;100368.47;4477547;32;33936;-83
2023/10/07 11:10:55;;;;;;;;;;;;;;;26.36;30.37;100357.69;4460920;32;35861;-83
2023/10/07 11:13:29;;;;;;;1.95;0.98;;;;;;;25.94;31.49;100354.72;4449566;32;33145;-82
2023/10/07 11:16:09;;;;;;;0.30;0.30;;;;;;;26.44;30.64;100349.66;4460238;32;33740;-82
2023/10/07 11:18:41;;;;;;;2.60;1.08;;;;;;;26.66;29.20;100339.34;4462268;32;32862;-83
2023/10/07 11:21:11;;;;;;;2.10;1.30;;;;;;;26.19;29.59;100337.72;4463682;32;33989;-82
2023/10/07 11:23:49;;;;;;;0.05;0.05;;;;;;;26.52;29.41;100340.75;4459438;32;33018;-82
2023/10/07 11:26:17;;;;;;;2.05;0.37;;;;;;;27.16;29.79;100323.28;4462322;32;33236;-83
2023/10/07 11:28:48;;;;;;;0.90;0.65;;;;;;;27.01;29.41;100331.13;4448978;32;32469;-83
2023/10/07 11:31:20;;;;;;;2.05;1.25;;;;;;;27.21;29.01;100331.78;4459312;32;34113;-83
2023/10/07 11:33:50;;;;;;;0.98;0.57;;;;;;;26.96;28.61;100317.19;4458883;32;34186;-83
2023/10/07 11:36:18;;;;;;;5.35;0.30;;;;;;;27.15;27.50;100326.13;4448371;32;31084;-83
2023/10/07 11:38:46;;;;;;;0.05;0.05;;;;;;;27.02;28.07;100318.44;4448662;32;33322;-83
2023/10/07 11:41:17;;;;;;;1.25;0.68;;;;;;;26.90;27.43;100325.13;4460079;32;34185;-82
2023/10/07 11:43:48;;;;;;;1.33;1.23;;;;;;;27.05;28.37;100309.97;4447078;32;34816;-82
2023/10/07 11:46:19;;;;;;;;;;;;;;;27.38;27.98;100315.56;4470722;32;34842;-82
2023/10/07 11:48:47;;;;;;;1.45;0.73;;;;;;;27.12;27.55;100311.06;4461390;32;34258;-82
2023/10/07 11:51:15;;;;;;;1.85;0.65;;;;;;;26.87;26.36;100301.91;4449903;32;32563;-82
2023/10/07 11:53:43;;;;;;;1.75;0.60;;;;;;;27.42;27.11;100303.41;4462093;32;34139;-82
2023/10/07 11:56:14;;;;;;;1.23;0.98;;;;;;;27.44;25.50;100309.50;4452346;32;33438;-82
2023/10/07 11:58:45;;;;;;;1.37;0.80;;;;;;;26.90;26.82;100301.56;4462574;32;32753;-82
2023/10/07 12:01:14;;;;;;;;;;;;;;;27.09;25.75;100303.25;4454438;32;34844;-82
2023/10/07 12:03:43;;;;;;;0.47;0.47;;;;;;;26.84;25.66;100304.09;4449480;32;33808;-82
2023/10/07 12:06:11;;;;;;;1.17;0.80;;;;;;;26.69;25.99;100304.66;4460065;32;34289;-82
2023/10/07 12:08:41;;;;;;;2.33;0.95;;;;;;;26.47;26.74;100310.59;4460523;32;32847;-82
2023/10/07 12:11:10;;;;;;;0.73;0.73;;;;;;;26.60;27.03;100307.47;4450981;32;34596;-82
2023/10/07 12:13:40;;;;;;;1.55;1.27;;;;;;;27.32;26.51;100289.97;4448288;32;34537;-82
2023/10/07 12:16:12;;;;;;;0.28;0.28;;;;;;;27.29;26.69;100291.13;4461143;32;33324;-83
2023/10/07 12:18:40;;;;;;;0.95;0.95;;;;;;;27.01;27.13;100284.19;4461317;32;32305;-82
2023/10/07 12:21:12;;;;;;;0.75;0.37;;;;;;;26.94;27.61;100281.28;4473004;32;33357;-83
2023/10/07 12:23:43;;;;;;;0.82;0.82;;;;;;;27.33;28.15;100285.41;4448344;32;33573;-82
2023/10/07 12:26:16;;;;;;;1.42;0.60;;;;;;;27.64;27.21;100289.25;4452409;32;34121;-82
2023/10/07 12:28:48;;;;;;;1.20;0.85;;;;;;;27.46;27.41;100275.78;4454183;32;33950;-82
2023/10/07 12:31:16;;;;;;;0.50;0.47;;;;;;;27.14;28.46;100268.38;4450529;32;32994;-82
2023/10/07 12:33:45;;;;;;;0.98;0.40;;;;;;;27.08;28.62;100282.56;4447234;32;34976;-82
2023/10/07 12:36:18;;;;;;;0.30;0.30;;;;;;;26.64;29.66;100274.50;4447687;32;34525;-82
2023/10/07 12:38:47;;;;;;;1.15;0.57;;;;;;;26.76;29.90;100278.63;4461420;32;33791;-82
2023/10/07 12:41:16;;;;;;;0.43;0.43;;;;;;;26.35;30.64;100284.72;4445811;32;33198;-82
2023/10/07 12:43:44;;;;;;;1.00;0.85;;;;;;;26.43;30.33;100288.37;4457157;32;35022;-82
2023/10/07 12:46:14;;;;;;;0.20;0.20;;;;;;;26.77;30.38;100282.19;4471375;32;33793;-82